sensor_id;sensor_type;location;lat;lon;timestamp;P1;durP1;ratioP1;P2;durP2;ratioP2
15708;SDS011;7954;51.914;8.420;2022-11-18T00:01:21;3.50;;;2.70;;
15708;SDS011;7954;51.914;8.420;2022-11-18T00:03:50;5.23;;;2.80;;
15708;SDS011;7954;51.914;8.420;2022-11-18T00:06:19;3.90;;;3.27;;
15708;SDS011;7954;51.914;8.420;2022-11-18T00:08:48;2.80;;;2.60;;
15708;SDS011;7954;51.914;8.420;2022-11-18T00:11:18;4.43;;;2.57;;
15708;SDS011;7954;51.914;8.420;2022-11-18T00:14:01;4.10;;;2.77;;
15708;SDS011;7954;51.914;8.420;2022-11-18T00:16:46;3.70;;;2.83;;
15708;SDS011;7954;51.914;8.420;2022-11-18T00:19:15;3.97;;;2.97;;
15708;SDS011;7954;51.914;8.420;2022-11-18T00:21:44;4.10;;;2.97;;
15708;SDS011;7954;51.914;8.420;2022-11-18T00:24:12;3.77;;;3.40;;
15708;SDS011;7954;51.914;8.420;2022-11-18T00:26:42;5.43;;;2.50;;
15708;SDS011;7954;51.914;8.420;2022-11-18T00:29:11;4.57;;;2.93;;
15708;SDS011;7954;51.914;8.420;2022-11-18T00:31:40;4.43;;;2.83;;
15708;SDS011;7954;51.914;8.420;2022-11-18T00:34:10;4.13;;;3.33;;
15708;SDS011;7954;51.914;8.420;2022-11-18T00:36:40;3.17;;;2.87;;
15708;SDS011;7954;51.914;8.420;2022-11-18T00:39:09;3.67;;;2.90;;
15708;SDS011;7954;51.914;8.420;2022-11-18T00:41:38;3.37;;;3.07;;
15708;SDS011;7954;51.914;8.420;2022-11-18T00:44:26;3.30;;;2.93;;
15708;SDS011;7954;51.914;8.420;2022-11-18T00:46:54;4.43;;;3.20;;
15708;SDS011;7954;51.914;8.420;2022-11-18T00:49:22;3.20;;;2.90;;
15708;SDS011;7954;51.914;8.420;2022-11-18T00:51:50;4.90;;;3.47;;
15708;SDS011;7954;51.914;8.420;2022-11-18T00:54:18;3.43;;;3.03;;
15708;SDS011;7954;51.914;8.420;2022-11-18T00:56:46;3.07;;;2.77;;
15708;SDS011;7954;51.914;8.420;2022-11-18T00:59:15;4.00;;;3.17;;
15708;SDS011;7954;51.914;8.420;2022-11-18T01:01:45;3.80;;;3.23;;
15708;SDS011;7954;51.914;8.420;2022-11-18T01:04:14;3.87;;;3.20;;
15708;SDS011;7954;51.914;8.420;2022-11-18T01:06:43;4.67;;;3.33;;
15708;SDS011;7954;51.914;8.420;2022-11-18T01:09:11;4.53;;;2.80;;
15708;SDS011;7954;51.914;8.420;2022-11-18T01:11:39;3.47;;;3.00;;
15708;SDS011;7954;51.914;8.420;2022-11-18T01:14:24;4.43;;;2.80;;
15708;SDS011;7954;51.914;8.420;2022-11-18T01:16:54;5.03;;;3.53;;
15708;SDS011;7954;51.914;8.420;2022-11-18T01:19:23;4.13;;;3.13;;
15708;SDS011;7954;51.914;8.420;2022-11-18T01:21:51;3.23;;;2.90;;
15708;SDS011;7954;51.914;8.420;2022-11-18T01:24:22;4.10;;;2.87;;
15708;SDS011;7954;51.914;8.420;2022-11-18T01:26:50;4.90;;;3.10;;
15708;SDS011;7954;51.914;8.420;2022-11-18T01:29:18;3.43;;;3.00;;
15708;SDS011;7954;51.914;8.420;2022-11-18T01:31:46;5.43;;;3.43;;
15708;SDS011;7954;51.914;8.420;2022-11-18T01:34:35;3.13;;;2.83;;
15708;SDS011;7954;51.914;8.420;2022-11-18T01:37:03;5.30;;;2.60;;
15708;SDS011;7954;51.914;8.420;2022-11-18T01:39:32;4.27;;;3.47;;
15708;SDS011;7954;51.914;8.420;2022-11-18T01:42:00;4.93;;;3.20;;
15708;SDS011;7954;51.914;8.420;2022-11-18T01:47:28;4.00;;;2.70;;
15708;SDS011;7954;51.914;8.420;2022-11-18T01:50:00;3.00;;;2.70;;
15708;SDS011;7954;51.914;8.420;2022-11-18T01:52:29;4.87;;;3.00;;
15708;SDS011;7954;51.914;8.420;2022-11-18T01:55:01;3.00;;;2.70;;
15708;SDS011;7954;51.914;8.420;2022-11-18T01:57:32;3.30;;;3.00;;
15708;SDS011;7954;51.914;8.420;2022-11-18T02:00:01;3.33;;;2.67;;
15708;SDS011;7954;51.914;8.420;2022-11-18T02:02:32;4.90;;;2.70;;
15708;SDS011;7954;51.914;8.420;2022-11-18T02:05:05;3.03;;;2.73;;
15708;SDS011;7954;51.914;8.420;2022-11-18T02:07:34;3.47;;;2.80;;
15708;SDS011;7954;51.914;8.420;2022-11-18T02:10:04;3.60;;;2.60;;
15708;SDS011;7954;51.914;8.420;2022-11-18T02:12:33;3.10;;;2.63;;
15708;SDS011;7954;51.914;8.420;2022-11-18T02:15:02;3.63;;;2.90;;
15708;SDS011;7954;51.914;8.420;2022-11-18T02:17:35;3.77;;;2.50;;
15708;SDS011;7954;51.914;8.420;2022-11-18T02:20:16;3.37;;;2.80;;
15708;SDS011;7954;51.914;8.420;2022-11-18T02:22:59;3.07;;;2.27;;
15708;SDS011;7954;51.914;8.420;2022-11-18T02:29:07;2.93;;;2.47;;
15708;SDS011;7954;51.914;8.420;2022-11-18T02:31:40;3.33;;;2.80;;
15708;SDS011;7954;51.914;8.420;2022-11-18T02:34:15;3.00;;;2.67;;
15708;SDS011;7954;51.914;8.420;2022-11-18T02:36:50;2.93;;;2.73;;
15708;SDS011;7954;51.914;8.420;2022-11-18T02:39:23;3.37;;;2.67;;
15708;SDS011;7954;51.914;8.420;2022-11-18T02:41:57;2.83;;;2.50;;
15708;SDS011;7954;51.914;8.420;2022-11-18T02:44:30;2.40;;;2.20;;
15708;SDS011;7954;51.914;8.420;2022-11-18T02:47:02;3.60;;;2.80;;
15708;SDS011;7954;51.914;8.420;2022-11-18T02:49:33;3.43;;;2.63;;
15708;SDS011;7954;51.914;8.420;2022-11-18T02:52:05;3.23;;;2.50;;
15708;SDS011;7954;51.914;8.420;2022-11-18T02:54:35;2.73;;;2.43;;
15708;SDS011;7954;51.914;8.420;2022-11-18T02:57:06;3.73;;;2.63;;
15708;SDS011;7954;51.914;8.420;2022-11-18T02:59:37;3.37;;;2.50;;
15708;SDS011;7954;51.914;8.420;2022-11-18T03:02:04;3.53;;;2.73;;
15708;SDS011;7954;51.914;8.420;2022-11-18T03:04:32;3.03;;;2.57;;
15708;SDS011;7954;51.914;8.420;2022-11-18T03:07:01;2.50;;;2.30;;
15708;SDS011;7954;51.914;8.420;2022-11-18T03:09:36;2.20;;;2.00;;
15708;SDS011;7954;51.914;8.420;2022-11-18T03:12:09;2.70;;;2.40;;
15708;SDS011;7954;51.914;8.420;2022-11-18T03:14:50;2.47;;;2.17;;
15708;SDS011;7954;51.914;8.420;2022-11-18T03:17:31;2.43;;;2.10;;
15708;SDS011;7954;51.914;8.420;2022-11-18T03:20:10;2.47;;;2.27;;
15708;SDS011;7954;51.914;8.420;2022-11-18T03:22:45;3.00;;;2.13;;
15708;SDS011;7954;51.914;8.420;2022-11-18T03:25:18;2.20;;;2.00;;
15708;SDS011;7954;51.914;8.420;2022-11-18T03:27:49;1.90;;;1.80;;
15708;SDS011;7954;51.914;8.420;2022-11-18T03:30:22;6.23;;;2.80;;
15708;SDS011;7954;51.914;8.420;2022-11-18T03:32:52;3.50;;;1.97;;
15708;SDS011;7954;51.914;8.420;2022-11-18T03:35:26;4.50;;;2.20;;
15708;SDS011;7954;51.914;8.420;2022-11-18T03:37:58;2.57;;;2.30;;
15708;SDS011;7954;51.914;8.420;2022-11-18T03:40:31;4.60;;;2.30;;
15708;SDS011;7954;51.914;8.420;2022-11-18T03:43:05;2.47;;;1.93;;
15708;SDS011;7954;51.914;8.420;2022-11-18T03:45:39;3.00;;;2.43;;
15708;SDS011;7954;51.914;8.420;2022-11-18T03:48:13;2.30;;;2.10;;
15708;SDS011;7954;51.914;8.420;2022-11-18T03:50:46;4.13;;;2.10;;
15708;SDS011;7954;51.914;8.420;2022-11-18T03:53:17;2.40;;;2.23;;
15708;SDS011;7954;51.914;8.420;2022-11-18T03:55:49;4.27;;;2.30;;
15708;SDS011;7954;51.914;8.420;2022-11-18T03:58:20;4.30;;;2.80;;
15708;SDS011;7954;51.914;8.420;2022-11-18T04:00:58;2.60;;;2.37;;
15708;SDS011;7954;51.914;8.420;2022-11-18T04:03:32;3.33;;;3.00;;
15708;SDS011;7954;51.914;8.420;2022-11-18T04:06:01;2.90;;;2.70;;
15708;SDS011;7954;51.914;8.420;2022-11-18T04:08:36;3.33;;;3.03;;
15708;SDS011;7954;51.914;8.420;2022-11-18T04:11:08;3.60;;;3.30;;
15708;SDS011;7954;51.914;8.420;2022-11-18T04:14:01;3.67;;;3.37;;
15708;SDS011;7954;51.914;8.420;2022-11-18T04:19:08;4.07;;;3.67;;
15708;SDS011;7954;51.914;8.420;2022-11-18T04:21:37;3.83;;;3.53;;
15708;SDS011;7954;51.914;8.420;2022-11-18T04:24:05;4.43;;;4.03;;
15708;SDS011;7954;51.914;8.420;2022-11-18T04:26:33;4.60;;;4.20;;
15708;SDS011;7954;51.914;8.420;2022-11-18T04:29:01;4.80;;;4.40;;
15708;SDS011;7954;51.914;8.420;2022-11-18T04:31:31;4.63;;;4.33;;
15708;SDS011;7954;51.914;8.420;2022-11-18T04:34:01;4.37;;;3.97;;
15708;SDS011;7954;51.914;8.420;2022-11-18T04:36:29;4.90;;;4.50;;
15708;SDS011;7954;51.914;8.420;2022-11-18T04:38:57;4.70;;;4.30;;
15708;SDS011;7954;51.914;8.420;2022-11-18T04:41:25;4.40;;;4.00;;
15708;SDS011;7954;51.914;8.420;2022-11-18T04:44:07;4.37;;;3.97;;
15708;SDS011;7954;51.914;8.420;2022-11-18T04:46:39;4.80;;;4.30;;
15708;SDS011;7954;51.914;8.420;2022-11-18T04:49:10;4.60;;;4.20;;
15708;SDS011;7954;51.914;8.420;2022-11-18T04:51:39;5.40;;;4.40;;
15708;SDS011;7954;51.914;8.420;2022-11-18T04:54:08;4.10;;;3.70;;
15708;SDS011;7954;51.914;8.420;2022-11-18T04:56:36;4.17;;;3.80;;
15708;SDS011;7954;51.914;8.420;2022-11-18T04:59:13;4.20;;;3.90;;
15708;SDS011;7954;51.914;8.420;2022-11-18T05:01:42;3.93;;;3.63;;
15708;SDS011;7954;51.914;8.420;2022-11-18T05:04:12;3.83;;;3.53;;
15708;SDS011;7954;51.914;8.420;2022-11-18T05:06:41;3.73;;;3.43;;
15708;SDS011;7954;51.914;8.420;2022-11-18T05:09:11;3.50;;;3.20;;
15708;SDS011;7954;51.914;8.420;2022-11-18T05:11:40;3.93;;;3.63;;
15708;SDS011;7954;51.914;8.420;2022-11-18T05:14:26;3.27;;;2.97;;
15708;SDS011;7954;51.914;8.420;2022-11-18T05:16:55;3.43;;;3.13;;
15708;SDS011;7954;51.914;8.420;2022-11-18T05:19:25;3.00;;;2.80;;
15708;SDS011;7954;51.914;8.420;2022-11-18T05:21:54;3.20;;;2.90;;
15708;SDS011;7954;51.914;8.420;2022-11-18T05:24:23;2.67;;;2.47;;
15708;SDS011;7954;51.914;8.420;2022-11-18T05:26:51;2.77;;;2.57;;
15708;SDS011;7954;51.914;8.420;2022-11-18T05:29:20;2.33;;;2.13;;
15708;SDS011;7954;51.914;8.420;2022-11-18T05:31:49;2.90;;;2.70;;
15708;SDS011;7954;51.914;8.420;2022-11-18T05:34:17;3.03;;;2.40;;
15708;SDS011;7954;51.914;8.420;2022-11-18T05:36:47;3.20;;;2.90;;
15708;SDS011;7954;51.914;8.420;2022-11-18T05:39:16;7.07;;;5.87;;
15708;SDS011;7954;51.914;8.420;2022-11-18T05:41:44;6.57;;;5.97;;
15708;SDS011;7954;51.914;8.420;2022-11-18T05:44:29;7.73;;;7.03;;
15708;SDS011;7954;51.914;8.420;2022-11-18T05:46:58;7.30;;;6.60;;
15708;SDS011;7954;51.914;8.420;2022-11-18T05:49:27;8.70;;;7.90;;
15708;SDS011;7954;51.914;8.420;2022-11-18T05:51:57;10.57;;;9.57;;
15708;SDS011;7954;51.914;8.420;2022-11-18T05:54:25;6.47;;;5.87;;
15708;SDS011;7954;51.914;8.420;2022-11-18T05:56:53;4.83;;;4.43;;
15708;SDS011;7954;51.914;8.420;2022-11-18T05:59:21;4.93;;;4.50;;
15708;SDS011;7954;51.914;8.420;2022-11-18T06:01:49;4.77;;;4.23;;
15708;SDS011;7954;51.914;8.420;2022-11-18T06:04:21;5.40;;;4.90;;
15708;SDS011;7954;51.914;8.420;2022-11-18T06:06:53;5.30;;;4.80;;
15708;SDS011;7954;51.914;8.420;2022-11-18T06:09:29;5.23;;;4.47;;
15708;SDS011;7954;51.914;8.420;2022-11-18T06:12:00;5.43;;;4.53;;
15708;SDS011;7954;51.914;8.420;2022-11-18T06:14:30;5.30;;;4.50;;
15708;SDS011;7954;51.914;8.420;2022-11-18T06:17:03;5.73;;;5.00;;
15708;SDS011;7954;51.914;8.420;2022-11-18T06:19:33;5.40;;;4.90;;
15708;SDS011;7954;51.914;8.420;2022-11-18T06:22:02;6.70;;;5.20;;
15708;SDS011;7954;51.914;8.420;2022-11-18T06:24:31;6.07;;;5.47;;
15708;SDS011;7954;51.914;8.420;2022-11-18T06:26:59;5.57;;;5.07;;
15708;SDS011;7954;51.914;8.420;2022-11-18T06:29:27;9.70;;;8.80;;
15708;SDS011;7954;51.914;8.420;2022-11-18T06:31:56;8.27;;;7.53;;
15708;SDS011;7954;51.914;8.420;2022-11-18T06:34:24;9.03;;;8.17;;
15708;SDS011;7954;51.914;8.420;2022-11-18T06:36:52;25.63;;;18.50;;
15708;SDS011;7954;51.914;8.420;2022-11-18T06:39:22;33.77;;;22.57;;
15708;SDS011;7954;51.914;8.420;2022-11-18T06:41:51;32.77;;;22.33;;
15708;SDS011;7954;51.914;8.420;2022-11-18T06:44:20;32.27;;;22.03;;
15708;SDS011;7954;51.914;8.420;2022-11-18T06:46:47;39.47;;;26.20;;
15708;SDS011;7954;51.914;8.420;2022-11-18T06:49:25;40.37;;;28.23;;
15708;SDS011;7954;51.914;8.420;2022-11-18T06:51:53;25.17;;;17.67;;
15708;SDS011;7954;51.914;8.420;2022-11-18T06:54:23;9.53;;;8.20;;
15708;SDS011;7954;51.914;8.420;2022-11-18T06:56:51;6.83;;;6.23;;
15708;SDS011;7954;51.914;8.420;2022-11-18T06:59:19;5.87;;;5.37;;
15708;SDS011;7954;51.914;8.420;2022-11-18T07:01:49;6.20;;;5.70;;
15708;SDS011;7954;51.914;8.420;2022-11-18T07:04:18;6.27;;;5.67;;
15708;SDS011;7954;51.914;8.420;2022-11-18T07:06:46;6.30;;;5.70;;
15708;SDS011;7954;51.914;8.420;2022-11-18T07:09:15;7.00;;;6.40;;
15708;SDS011;7954;51.914;8.420;2022-11-18T07:11:45;6.30;;;5.70;;
15708;SDS011;7954;51.914;8.420;2022-11-18T07:14:13;7.43;;;6.63;;
15708;SDS011;7954;51.914;8.420;2022-11-18T07:16:41;6.50;;;6.00;;
15708;SDS011;7954;51.914;8.420;2022-11-18T07:19:10;6.83;;;6.23;;
15708;SDS011;7954;51.914;8.420;2022-11-18T07:21:40;6.67;;;6.07;;
15708;SDS011;7954;51.914;8.420;2022-11-18T07:24:10;7.93;;;7.13;;
15708;SDS011;7954;51.914;8.420;2022-11-18T07:26:39;10.03;;;7.70;;
15708;SDS011;7954;51.914;8.420;2022-11-18T07:29:09;8.40;;;7.50;;
15708;SDS011;7954;51.914;8.420;2022-11-18T07:31:38;7.70;;;7.00;;
15708;SDS011;7954;51.914;8.420;2022-11-18T07:34:06;7.33;;;6.73;;
15708;SDS011;7954;51.914;8.420;2022-11-18T07:36:36;7.90;;;7.20;;
15708;SDS011;7954;51.914;8.420;2022-11-18T07:39:05;8.83;;;7.93;;
15708;SDS011;7954;51.914;8.420;2022-11-18T07:41:33;8.83;;;8.03;;
15708;SDS011;7954;51.914;8.420;2022-11-18T07:44:02;11.67;;;8.70;;
15708;SDS011;7954;51.914;8.420;2022-11-18T07:46:33;7.73;;;7.00;;
15708;SDS011;7954;51.914;8.420;2022-11-18T07:49:03;7.47;;;6.80;;
15708;SDS011;7954;51.914;8.420;2022-11-18T07:51:33;8.70;;;7.80;;
15708;SDS011;7954;51.914;8.420;2022-11-18T07:54:04;7.90;;;7.20;;
15708;SDS011;7954;51.914;8.420;2022-11-18T07:56:33;7.70;;;7.00;;
15708;SDS011;7954;51.914;8.420;2022-11-18T07:59:01;7.63;;;6.93;;
15708;SDS011;7954;51.914;8.420;2022-11-18T08:01:30;7.93;;;7.27;;
15708;SDS011;7954;51.914;8.420;2022-11-18T08:04:05;8.57;;;7.70;;
15708;SDS011;7954;51.914;8.420;2022-11-18T08:06:34;8.20;;;7.40;;
15708;SDS011;7954;51.914;8.420;2022-11-18T08:09:02;8.90;;;7.73;;
15708;SDS011;7954;51.914;8.420;2022-11-18T08:11:31;10.80;;;8.43;;
15708;SDS011;7954;51.914;8.420;2022-11-18T08:13:59;8.80;;;7.93;;
15708;SDS011;7954;51.914;8.420;2022-11-18T08:16:28;7.27;;;6.67;;
15708;SDS011;7954;51.914;8.420;2022-11-18T08:18:56;9.13;;;8.17;;
15708;SDS011;7954;51.914;8.420;2022-11-18T08:21:26;8.53;;;7.67;;
15708;SDS011;7954;51.914;8.420;2022-11-18T08:23:55;9.10;;;8.23;;
15708;SDS011;7954;51.914;8.420;2022-11-18T08:26:24;10.20;;;8.53;;
15708;SDS011;7954;51.914;8.420;2022-11-18T08:28:53;11.43;;;9.07;;
15708;SDS011;7954;51.914;8.420;2022-11-18T08:31:22;9.60;;;8.67;;
15708;SDS011;7954;51.914;8.420;2022-11-18T08:33:55;10.13;;;8.87;;
15708;SDS011;7954;51.914;8.420;2022-11-18T08:36:27;10.17;;;8.80;;
15708;SDS011;7954;51.914;8.420;2022-11-18T08:38:57;9.60;;;8.70;;
15708;SDS011;7954;51.914;8.420;2022-11-18T08:41:27;15.57;;;10.17;;
15708;SDS011;7954;51.914;8.420;2022-11-18T08:43:57;8.27;;;7.47;;
15708;SDS011;7954;51.914;8.420;2022-11-18T08:46:26;9.13;;;8.33;;
15708;SDS011;7954;51.914;8.420;2022-11-18T08:48:54;10.03;;;8.83;;
15708;SDS011;7954;51.914;8.420;2022-11-18T08:51:22;9.83;;;8.87;;
15708;SDS011;7954;51.914;8.420;2022-11-18T08:53:52;8.13;;;7.47;;
15708;SDS011;7954;51.914;8.420;2022-11-18T08:56:20;9.63;;;8.53;;
15708;SDS011;7954;51.914;8.420;2022-11-18T08:58:49;7.63;;;6.97;;
15708;SDS011;7954;51.914;8.420;2022-11-18T09:01:17;8.97;;;8.07;;
15708;SDS011;7954;51.914;8.420;2022-11-18T09:03:48;7.87;;;7.27;;
15708;SDS011;7954;51.914;8.420;2022-11-18T09:06:18;8.43;;;7.63;;
15708;SDS011;7954;51.914;8.420;2022-11-18T09:08:47;8.33;;;7.50;;
15708;SDS011;7954;51.914;8.420;2022-11-18T09:11:18;8.90;;;7.77;;
15708;SDS011;7954;51.914;8.420;2022-11-18T09:13:50;8.30;;;7.33;;
15708;SDS011;7954;51.914;8.420;2022-11-18T09:16:39;7.83;;;7.03;;
15708;SDS011;7954;51.914;8.420;2022-11-18T09:19:07;8.43;;;7.70;;
15708;SDS011;7954;51.914;8.420;2022-11-18T09:21:55;7.43;;;6.73;;
15708;SDS011;7954;51.914;8.420;2022-11-18T09:24:23;8.70;;;7.80;;
15708;SDS011;7954;51.914;8.420;2022-11-18T09:26:53;8.10;;;7.30;;
15708;SDS011;7954;51.914;8.420;2022-11-18T09:29:22;7.63;;;6.97;;
15708;SDS011;7954;51.914;8.420;2022-11-18T09:31:51;7.63;;;7.00;;
15708;SDS011;7954;51.914;8.420;2022-11-18T09:34:20;8.43;;;7.57;;
15708;SDS011;7954;51.914;8.420;2022-11-18T09:36:48;7.73;;;6.73;;
15708;SDS011;7954;51.914;8.420;2022-11-18T09:39:17;7.83;;;7.13;;
15708;SDS011;7954;51.914;8.420;2022-11-18T09:41:45;7.93;;;7.13;;
15708;SDS011;7954;51.914;8.420;2022-11-18T09:44:26;6.33;;;5.77;;
15708;SDS011;7954;51.914;8.420;2022-11-18T09:47:05;6.90;;;6.20;;
15708;SDS011;7954;51.914;8.420;2022-11-18T09:49:41;6.77;;;6.17;;
15708;SDS011;7954;51.914;8.420;2022-11-18T09:52:14;6.70;;;6.10;;
15708;SDS011;7954;51.914;8.420;2022-11-18T09:54:45;7.33;;;6.07;;
15708;SDS011;7954;51.914;8.420;2022-11-18T09:57:15;7.43;;;6.83;;
15708;SDS011;7954;51.914;8.420;2022-11-18T09:59:46;7.23;;;6.53;;
15708;SDS011;7954;51.914;8.420;2022-11-18T10:02:25;6.07;;;5.57;;
15708;SDS011;7954;51.914;8.420;2022-11-18T10:05:06;6.30;;;5.80;;
15708;SDS011;7954;51.914;8.420;2022-11-18T10:07:42;6.97;;;6.37;;
15708;SDS011;7954;51.914;8.420;2022-11-18T10:10:17;7.00;;;6.40;;
15708;SDS011;7954;51.914;8.420;2022-11-18T10:12:50;6.77;;;6.13;;
15708;SDS011;7954;51.914;8.420;2022-11-18T10:15:26;7.23;;;6.07;;
15708;SDS011;7954;51.914;8.420;2022-11-18T10:18:02;6.90;;;6.20;;
15708;SDS011;7954;51.914;8.420;2022-11-18T10:21:04;6.83;;;6.23;;
15708;SDS011;7954;51.914;8.420;2022-11-18T10:23:43;7.07;;;6.47;;
15708;SDS011;7954;51.914;8.420;2022-11-18T10:26:29;7.10;;;6.50;;
15708;SDS011;7954;51.914;8.420;2022-11-18T10:29:00;6.40;;;5.80;;
15708;SDS011;7954;51.914;8.420;2022-11-18T10:31:30;7.10;;;6.40;;
15708;SDS011;7954;51.914;8.420;2022-11-18T10:33:58;6.67;;;5.97;;
15708;SDS011;7954;51.914;8.420;2022-11-18T10:36:28;6.30;;;5.80;;
15708;SDS011;7954;51.914;8.420;2022-11-18T10:39:08;6.90;;;5.83;;
15708;SDS011;7954;51.914;8.420;2022-11-18T10:41:39;5.20;;;4.80;;
15708;SDS011;7954;51.914;8.420;2022-11-18T10:47:22;5.17;;;4.70;;
15708;SDS011;7954;51.914;8.420;2022-11-18T10:49:51;5.37;;;4.73;;
15708;SDS011;7954;51.914;8.420;2022-11-18T10:52:21;5.27;;;4.83;;
15708;SDS011;7954;51.914;8.420;2022-11-18T10:57:50;5.40;;;4.90;;
15708;SDS011;7954;51.914;8.420;2022-11-18T11:00:39;6.13;;;5.53;;
15708;SDS011;7954;51.914;8.420;2022-11-18T11:03:18;5.73;;;5.10;;
15708;SDS011;7954;51.914;8.420;2022-11-18T11:09:05;4.93;;;4.53;;
15708;SDS011;7954;51.914;8.420;2022-11-18T11:11:36;5.17;;;4.77;;
15708;SDS011;7954;51.914;8.420;2022-11-18T11:14:19;5.97;;;4.30;;
15708;SDS011;7954;51.914;8.420;2022-11-18T11:16:58;4.90;;;4.50;;
15708;SDS011;7954;51.914;8.420;2022-11-18T11:19:34;4.73;;;4.33;;
15708;SDS011;7954;51.914;8.420;2022-11-18T11:22:08;4.27;;;3.87;;
15708;SDS011;7954;51.914;8.420;2022-11-18T11:24:38;3.77;;;3.47;;
15708;SDS011;7954;51.914;8.420;2022-11-18T11:27:20;4.23;;;3.77;;
15708;SDS011;7954;51.914;8.420;2022-11-18T11:30:14;3.90;;;3.60;;
15708;SDS011;7954;51.914;8.420;2022-11-18T11:33:03;4.07;;;3.77;;
15708;SDS011;7954;51.914;8.420;2022-11-18T11:35:44;3.70;;;3.40;;
15708;SDS011;7954;51.914;8.420;2022-11-18T11:38:17;4.00;;;3.60;;
15708;SDS011;7954;51.914;8.420;2022-11-18T11:40:54;3.83;;;3.53;;
15708;SDS011;7954;51.914;8.420;2022-11-18T11:43:34;4.17;;;3.80;;
15708;SDS011;7954;51.914;8.420;2022-11-18T11:46:14;3.73;;;3.43;;
15708;SDS011;7954;51.914;8.420;2022-11-18T11:48:55;4.40;;;4.00;;
15708;SDS011;7954;51.914;8.420;2022-11-18T11:51:29;5.23;;;4.00;;
15708;SDS011;7954;51.914;8.420;2022-11-18T11:54:08;4.40;;;4.00;;
15708;SDS011;7954;51.914;8.420;2022-11-18T11:56:45;3.70;;;3.40;;
15708;SDS011;7954;51.914;8.420;2022-11-18T11:59:18;4.50;;;4.10;;
15708;SDS011;7954;51.914;8.420;2022-11-18T12:02:01;4.17;;;3.77;;
15708;SDS011;7954;51.914;8.420;2022-11-18T12:04:47;4.30;;;3.97;;
15708;SDS011;7954;51.914;8.420;2022-11-18T12:07:19;4.27;;;3.87;;
15708;SDS011;7954;51.914;8.420;2022-11-18T12:10:07;3.90;;;3.60;;
15708;SDS011;7954;51.914;8.420;2022-11-18T12:12:51;4.60;;;4.20;;
15708;SDS011;7954;51.914;8.420;2022-11-18T12:15:34;4.03;;;3.73;;
15708;SDS011;7954;51.914;8.420;2022-11-18T12:18:10;4.37;;;3.97;;
15708;SDS011;7954;51.914;8.420;2022-11-18T12:20:44;4.27;;;3.90;;
15708;SDS011;7954;51.914;8.420;2022-11-18T12:23:15;3.90;;;3.60;;
15708;SDS011;7954;51.914;8.420;2022-11-18T12:25:52;3.87;;;3.50;;
15708;SDS011;7954;51.914;8.420;2022-11-18T12:28:33;4.27;;;3.63;;
15708;SDS011;7954;51.914;8.420;2022-11-18T12:34:17;4.27;;;3.97;;
15708;SDS011;7954;51.914;8.420;2022-11-18T12:36:55;5.10;;;4.67;;
15708;SDS011;7954;51.914;8.420;2022-11-18T12:39:47;4.40;;;4.00;;
15708;SDS011;7954;51.914;8.420;2022-11-18T12:45:36;3.90;;;3.60;;
15708;SDS011;7954;51.914;8.420;2022-11-18T12:54:19;5.33;;;4.30;;
15708;SDS011;7954;51.914;8.420;2022-11-18T12:56:54;6.50;;;5.03;;
15708;SDS011;7954;51.914;8.420;2022-11-18T12:59:27;7.60;;;6.23;;
15708;SDS011;7954;51.914;8.420;2022-11-18T13:02:05;5.17;;;4.67;;
15708;SDS011;7954;51.914;8.420;2022-11-18T13:07:41;7.80;;;7.10;;
15708;SDS011;7954;51.914;8.420;2022-11-18T13:10:29;4.03;;;3.70;;
15708;SDS011;7954;51.914;8.420;2022-11-18T13:13:01;3.70;;;3.40;;
15708;SDS011;7954;51.914;8.420;2022-11-18T13:15:29;6.07;;;5.43;;
15708;SDS011;7954;51.914;8.420;2022-11-18T13:18:16;5.47;;;4.90;;
15708;SDS011;7954;51.914;8.420;2022-11-18T13:20:52;4.30;;;4.00;;
15708;SDS011;7954;51.914;8.420;2022-11-18T13:23:25;5.27;;;4.77;;
15708;SDS011;7954;51.914;8.420;2022-11-18T13:26:14;7.17;;;6.47;;
15708;SDS011;7954;51.914;8.420;2022-11-18T13:28:57;8.77;;;7.53;;
15708;SDS011;7954;51.914;8.420;2022-11-18T13:31:34;21.40;;;14.87;;
15708;SDS011;7954;51.914;8.420;2022-11-18T13:34:10;6.77;;;6.10;;
15708;SDS011;7954;51.914;8.420;2022-11-18T13:36:44;4.60;;;4.20;;
15708;SDS011;7954;51.914;8.420;2022-11-18T13:39:19;3.93;;;3.53;;
15708;SDS011;7954;51.914;8.420;2022-11-18T13:41:59;3.90;;;3.60;;
15708;SDS011;7954;51.914;8.420;2022-11-18T13:44:31;4.47;;;4.07;;
15708;SDS011;7954;51.914;8.420;2022-11-18T13:47:02;4.10;;;3.70;;
15708;SDS011;7954;51.914;8.420;2022-11-18T13:49:37;4.67;;;4.27;;
15708;SDS011;7954;51.914;8.420;2022-11-18T13:52:17;3.63;;;3.37;;
15708;SDS011;7954;51.914;8.420;2022-11-18T13:54:49;4.20;;;3.90;;
15708;SDS011;7954;51.914;8.420;2022-11-18T13:57:19;4.03;;;3.67;;
15708;SDS011;7954;51.914;8.420;2022-11-18T13:59:52;4.37;;;3.97;;
15708;SDS011;7954;51.914;8.420;2022-11-18T14:02:21;4.77;;;4.37;;
15708;SDS011;7954;51.914;8.420;2022-11-18T14:04:51;4.17;;;3.87;;
15708;SDS011;7954;51.914;8.420;2022-11-18T14:07:22;4.20;;;3.90;;
15708;SDS011;7954;51.914;8.420;2022-11-18T14:09:54;4.73;;;4.33;;
15708;SDS011;7954;51.914;8.420;2022-11-18T14:12:24;4.40;;;4.10;;
15708;SDS011;7954;51.914;8.420;2022-11-18T14:15:13;4.60;;;4.20;;
15708;SDS011;7954;51.914;8.420;2022-11-18T14:17:50;4.40;;;4.00;;
15708;SDS011;7954;51.914;8.420;2022-11-18T14:20:20;4.67;;;4.07;;
15708;SDS011;7954;51.914;8.420;2022-11-18T14:22:49;4.67;;;4.27;;
15708;SDS011;7954;51.914;8.420;2022-11-18T14:25:23;4.77;;;4.37;;
15708;SDS011;7954;51.914;8.420;2022-11-18T14:27:54;4.50;;;4.10;;
15708;SDS011;7954;51.914;8.420;2022-11-18T14:30:27;4.10;;;3.80;;
15708;SDS011;7954;51.914;8.420;2022-11-18T14:33:10;4.60;;;4.20;;
15708;SDS011;7954;51.914;8.420;2022-11-18T14:35:43;4.80;;;4.40;;
15708;SDS011;7954;51.914;8.420;2022-11-18T14:38:16;4.67;;;4.27;;
15708;SDS011;7954;51.914;8.420;2022-11-18T14:41:06;4.07;;;3.77;;
15708;SDS011;7954;51.914;8.420;2022-11-18T14:43:37;4.17;;;3.77;;
15708;SDS011;7954;51.914;8.420;2022-11-18T14:46:10;4.10;;;3.80;;
15708;SDS011;7954;51.914;8.420;2022-11-18T14:48:41;4.23;;;3.83;;
15708;SDS011;7954;51.914;8.420;2022-11-18T14:51:10;4.37;;;4.07;;
15708;SDS011;7954;51.914;8.420;2022-11-18T14:53:40;4.50;;;4.10;;
15708;SDS011;7954;51.914;8.420;2022-11-18T14:56:11;4.10;;;3.70;;
15708;SDS011;7954;51.914;8.420;2022-11-18T14:58:41;4.43;;;4.03;;
15708;SDS011;7954;51.914;8.420;2022-11-18T15:01:11;4.80;;;4.40;;
15708;SDS011;7954;51.914;8.420;2022-11-18T15:03:39;4.60;;;4.20;;
15708;SDS011;7954;51.914;8.420;2022-11-18T15:06:11;4.50;;;4.10;;
15708;SDS011;7954;51.914;8.420;2022-11-18T15:08:40;4.50;;;3.67;;
15708;SDS011;7954;51.914;8.420;2022-11-18T15:11:10;3.57;;;3.27;;
15708;SDS011;7954;51.914;8.420;2022-11-18T15:13:38;3.77;;;3.47;;
15708;SDS011;7954;51.914;8.420;2022-11-18T15:16:11;3.70;;;3.40;;
15708;SDS011;7954;51.914;8.420;2022-11-18T15:18:41;4.00;;;3.70;;
15708;SDS011;7954;51.914;8.420;2022-11-18T15:21:12;4.50;;;4.10;;
15708;SDS011;7954;51.914;8.420;2022-11-18T15:23:40;4.13;;;3.73;;
15708;SDS011;7954;51.914;8.420;2022-11-18T15:26:13;4.97;;;4.47;;
15708;SDS011;7954;51.914;8.420;2022-11-18T15:28:45;4.90;;;4.50;;
15708;SDS011;7954;51.914;8.420;2022-11-18T15:31:16;4.20;;;3.80;;
15708;SDS011;7954;51.914;8.420;2022-11-18T15:33:45;4.03;;;3.73;;
15708;SDS011;7954;51.914;8.420;2022-11-18T15:36:14;4.43;;;3.87;;
15708;SDS011;7954;51.914;8.420;2022-11-18T15:38:43;4.90;;;4.40;;
15708;SDS011;7954;51.914;8.420;2022-11-18T15:41:13;4.23;;;3.83;;
15708;SDS011;7954;51.914;8.420;2022-11-18T15:43:44;4.40;;;4.00;;
15708;SDS011;7954;51.914;8.420;2022-11-18T15:46:12;4.53;;;4.13;;
15708;SDS011;7954;51.914;8.420;2022-11-18T15:48:44;4.23;;;3.83;;
15708;SDS011;7954;51.914;8.420;2022-11-18T15:51:12;4.60;;;4.20;;
15708;SDS011;7954;51.914;8.420;2022-11-18T15:53:42;4.30;;;3.90;;
15708;SDS011;7954;51.914;8.420;2022-11-18T15:56:23;4.23;;;3.93;;
15708;SDS011;7954;51.914;8.420;2022-11-18T15:58:53;4.23;;;3.83;;
15708;SDS011;7954;51.914;8.420;2022-11-18T16:01:25;3.73;;;3.43;;
15708;SDS011;7954;51.914;8.420;2022-11-18T16:03:54;3.83;;;3.53;;
15708;SDS011;7954;51.914;8.420;2022-11-18T16:06:23;3.87;;;3.57;;